Time;durP1;ratioP1;P1;durP2;ratioP2;P2;SDS_P1;SDS_P2;PMS_P1;PMS_P2;Temp;Humidity;BMP_temperature;BMP_pressure;BME280_temperature;BME280_humidity;BME280_pressure;Samples;Min_cycle;Max_cycle;Signal;HPM_P1;HPM_P2
2022/06/29 00:07:22;;;;;;;4.13;1.73;;;19.90;1.00;;;;;;5079839;28;20469;-74
2022/06/29 00:09:48;;;;;;;3.27;1.47;;;19.90;1.00;;;;;;5073754;28;20414;-74
2022/06/29 00:12:18;;;;;;;2.83;1.47;;;19.90;1.00;;;;;;5067582;28;20278;-74
2022/06/29 00:14:44;;;;;;;1.80;1.70;;;19.90;1.00;;;;;;5088847;28;20652;-74
2022/06/29 00:17:11;;;;;;;2.23;2.10;;;19.90;1.00;;;;;;5083822;28;20418;-74
2022/06/29 00:19:42;;;;;;;2.93;1.90;;;19.90;1.00;;;;;;5079545;28;20255;-74
2022/06/29 00:22:36;;;;;;;2.30;1.73;;;19.90;1.00;;;;;;5075763;28;20423;-77
2022/06/29 00:25:24;;;;;;;1.97;1.50;;;20.00;1.00;;;;;;5061697;28;20414;-77
2022/06/29 00:28:00;;;;;;;1.60;1.50;;;20.00;1.00;;;;;;5078092;28;20469;-77
2022/06/29 00:30:30;;;;;;;2.30;1.70;;;20.00;1.00;;;;;;5083443;28;20494;-76
2022/06/29 00:33:12;;;;;;;2.30;1.90;;;20.00;1.00;;;;;;5088379;28;20456;-77
2022/06/29 00:36:06;;;;;;;7.23;1.50;;;20.00;1.00;;;;;;5075075;28;20429;-77
2022/06/29 00:42:31;;;;;;;3.87;1.60;;;20.10;1.00;;;;;;5056485;28;20427;-77
2022/06/29 00:44:57;;;;;;;2.50;1.80;;;20.00;1.00;;;;;;5065064;28;20422;-77
2022/06/29 00:47:30;;;;;;;5.07;3.07;;;20.10;1.00;;;;;;5070880;28;20462;-77
2022/06/29 00:53:20;;;;;;;1.77;1.40;;;20.00;1.00;;;;;;5087084;28;20505;-77
2022/06/29 00:55:48;;;;;;;1.80;1.70;;;20.00;1.00;;;;;;5074878;28;20454;-77
2022/06/29 00:59:00;;;;;;;4.53;1.60;;;20.00;1.00;;;;;;5063471;28;20413;-77
2022/06/29 01:01:38;;;;;;;1.60;1.50;;;20.00;1.00;;;;;;5067123;28;20417;-77
2022/06/29 01:04:24;;;;;;;2.53;2.00;;;20.00;1.00;;;;;;5085026;28;20426;-76
2022/06/29 01:06:50;;;;;;;2.40;1.77;;;20.00;1.00;;;;;;5057707;28;20449;-77
2022/06/29 01:10:00;;;;;;;1.90;1.70;;;20.00;1.00;;;;;;5076830;28;20486;-77
2022/06/29 01:12:42;;;;;;;1.83;1.30;;;20.00;1.00;;;;;;5054326;28;20467;-77
2022/06/29 01:15:30;;;;;;;1.70;1.60;;;20.10;1.00;;;;;;5058545;28;20915;-77
2022/06/29 01:18:00;;;;;;;1.50;1.40;;;20.10;1.00;;;;;;5068774;28;20417;-76
2022/06/29 01:21:04;;;;;;;4.30;2.07;;;20.10;1.00;;;;;;5064522;28;20790;-77
2022/06/29 01:23:49;;;;;;;2.50;1.57;;;20.20;1.00;;;;;;5068204;28;20432;-77
2022/06/29 01:26:14;;;;;;;2.60;1.83;;;20.20;1.00;;;;;;5068116;28;20444;-77
2022/06/29 01:29:12;;;;;;;3.93;1.80;;;20.20;1.00;;;;;;5083816;28;20441;-77
2022/06/29 01:32:30;;;;;;;2.80;1.63;;;20.20;1.00;;;;;;5069074;28;20172;-77
2022/06/29 01:35:16;;;;;;;1.40;1.30;;;20.30;1.00;;;;;;5061522;28;20457;-77
2022/06/29 01:37:42;;;;;;;4.33;2.03;;;20.20;1.00;;;;;;5069691;28;20431;-75
2022/06/29 01:40:10;;;;;;;2.30;1.67;;;20.30;1.00;;;;;;5064662;28;20779;-74
2022/06/29 01:42:36;;;;;;;3.90;1.80;;;20.30;1.00;;;;;;5068541;28;20434;-74
2022/06/29 01:45:03;;;;;;;4.50;2.10;;;20.30;1.00;;;;;;5093504;28;20429;-74
2022/06/29 01:47:28;;;;;;;3.23;1.73;;;20.30;1.00;;;;;;5075221;28;20554;-74
2022/06/29 01:49:54;;;;;;;1.80;1.70;;;20.30;1.00;;;;;;5084598;28;20512;-74
2022/06/29 01:52:27;;;;;;;1.90;1.70;;;20.30;1.00;;;;;;5070940;28;20535;-76
2022/06/29 01:54:53;;;;;;;3.30;1.80;;;20.20;1.00;;;;;;5075609;28;20179;-74
2022/06/29 01:57:24;;;;;;;2.03;1.60;;;20.20;1.00;;;;;;5080207;28;20912;-74
2022/06/29 01:59:54;;;;;;;1.93;1.83;;;20.10;1.00;;;;;;5080133;28;20180;-74
2022/06/29 02:02:25;;;;;;;4.40;1.63;;;20.10;1.00;;;;;;5078450;28;20927;-74
2022/06/29 02:05:01;;;;;;;2.93;2.00;;;20.10;1.00;;;;;;5087620;28;20440;-74
2022/06/29 02:07:33;;;;;;;1.90;1.80;;;20.10;1.00;;;;;;5073481;28;20450;-77
2022/06/29 02:10:01;;;;;;;1.70;1.60;;;20.10;1.00;;;;;;5086652;28;20479;-74
2022/06/29 02:12:26;;;;;;;2.63;2.20;;;20.10;1.00;;;;;;5073086;28;20426;-74
2022/06/29 02:14:52;;;;;;;2.20;1.60;;;20.10;1.00;;;;;;5086895;28;20414;-74
2022/06/29 02:17:19;;;;;;;2.00;1.80;;;20.10;1.00;;;;;;5083208;28;20299;-74
2022/06/29 02:19:48;;;;;;;2.83;1.70;;;20.10;1.00;;;;;;5083653;28;20167;-74
2022/06/29 02:22:18;;;;;;;2.60;1.87;;;20.10;1.00;;;;;;5077429;28;20500;-74
2022/06/29 02:25:00;;;;;;;2.97;2.10;;;20.10;1.00;;;;;;5070483;28;20419;-77
2022/06/29 02:27:30;;;;;;;2.53;1.80;;;20.10;1.00;;;;;;5066438;28;20470;-77
2022/06/29 02:30:00;;;;;;;6.43;1.80;;;20.20;1.00;;;;;;5073013;28;20453;-77
2022/06/29 02:35:54;;;;;;;4.77;1.93;;;20.20;1.00;;;;;;5063514;28;20396;-78
2022/06/29 02:38:30;;;;;;;5.23;1.80;;;20.20;1.00;;;;;;5077386;28;20450;-77
2022/06/29 02:41:01;;;;;;;1.90;1.80;;;20.20;1.00;;;;;;5074573;28;20415;-77
2022/06/29 02:43:31;;;;;;;2.00;1.90;;;20.20;1.00;;;;;;5074670;28;20949;-77
2022/06/29 02:46:00;;;;;;;3.23;1.80;;;20.20;1.00;;;;;;5063398;28;20409;-77
2022/06/29 02:48:32;;;;;;;5.33;1.83;;;20.20;1.00;;;;;;5077885;28;20453;-77
2022/06/29 02:51:00;;;;;;;6.63;1.87;;;20.20;1.00;;;;;;5070605;28;20480;-77
2022/06/29 02:53:30;;;;;;;3.80;2.07;;;20.20;1.00;;;;;;5063467;28;20971;-77
2022/06/29 02:56:00;;;;;;;3.20;2.17;;;20.20;1.00;;;;;;5076420;28;20418;-77
2022/06/29 02:58:54;;;;;;;4.53;2.40;;;20.20;1.00;;;;;;5062921;28;20442;-77
2022/06/29 03:01:31;;;;;;;2.13;1.93;;;20.20;1.00;;;;;;5076438;28;20429;-77
2022/06/29 03:03:56;;;;;;;2.03;1.90;;;20.20;1.00;;;;;;5055987;28;20442;-76
2022/06/29 03:07:00;;;;;;;2.30;2.10;;;20.20;1.00;;;;;;5069847;28;20434;-77
2022/06/29 03:09:26;;;;;;;2.60;2.40;;;20.30;1.00;;;;;;5076716;28;20276;-74
2022/06/29 03:11:52;;;;;;;3.90;2.13;;;20.20;1.00;;;;;;5075522;28;20446;-74
2022/06/29 03:14:18;;;;;;;2.57;2.33;;;20.30;1.00;;;;;;5067157;28;20492;-74
2022/06/29 03:16:44;;;;;;;2.63;2.00;;;20.30;1.00;;;;;;5089920;28;20441;-74
2022/06/29 03:19:13;;;;;;;2.17;1.97;;;20.30;1.00;;;;;;5065793;28;20414;-74
2022/06/29 03:21:38;;;;;;;2.43;2.00;;;20.30;1.00;;;;;;5081748;28;20182;-74
2022/06/29 03:24:30;;;;;;;4.20;1.93;;;20.30;1.00;;;;;;5087836;28;20426;-77
2022/06/29 03:26:56;;;;;;;2.20;2.00;;;20.40;1.00;;;;;;5064989;28;20202;-77
2022/06/29 03:29:30;;;;;;;2.17;2.07;;;20.40;1.00;;;;;;5073227;28;20451;-77
2022/06/29 03:32:01;;;;;;;7.00;2.13;;;20.40;1.00;;;;;;5058490;28;20180;-77
2022/06/29 03:34:30;;;;;;;2.10;2.00;;;20.40;1.00;;;;;;5058364;28;20521;-77
2022/06/29 03:37:01;;;;;;;9.73;2.27;;;20.40;1.00;;;;;;5066753;28;20416;-77
2022/06/29 03:39:30;;;;;;;3.33;1.93;;;20.40;1.00;;;;;;5057740;28;20498;-78
2022/06/29 03:42:00;;;;;;;2.30;2.20;;;20.40;1.00;;;;;;5064476;28;20431;-77
2022/06/29 03:44:30;;;;;;;8.50;2.30;;;20.40;1.00;;;;;;5068647;28;20420;-77
2022/06/29 03:47:01;;;;;;;3.57;1.83;;;20.40;1.00;;;;;;5063224;28;20409;-77
2022/06/29 03:49:30;;;;;;;2.40;2.20;;;20.50;1.00;;;;;;5088355;28;20455;-77
2022/06/29 03:52:02;;;;;;;2.27;2.10;;;20.50;1.00;;;;;;5081284;28;20448;-77
2022/06/29 03:54:28;;;;;;;3.43;2.33;;;20.50;1.00;;;;;;5072906;28;20402;-74
2022/06/29 03:56:54;;;;;;;2.50;2.20;;;20.50;1.00;;;;;;5078897;28;20430;-74
2022/06/29 03:59:20;;;;;;;4.70;2.67;;;20.50;1.00;;;;;;5072508;28;20169;-74
2022/06/29 04:01:46;;;;;;;5.10;2.10;;;20.60;1.00;;;;;;5081780;28;20435;-74
2022/06/29 04:04:13;;;;;;;2.40;1.93;;;20.60;1.00;;;;;;5087218;28;20568;-74
2022/06/29 04:06:40;;;;;;;2.30;2.10;;;20.60;1.00;;;;;;5077023;28;20427;-74
2022/06/29 04:09:06;;;;;;;3.00;2.03;;;20.70;1.00;;;;;;5086742;28;20456;-74
2022/06/29 04:11:49;;;;;;;3.33;2.17;;;20.70;1.00;;;;;;5065913;28;20412;-74
2022/06/29 04:14:19;;;;;;;3.23;2.93;;;20.70;1.00;;;;;;5086352;28;20398;-74
2022/06/29 04:16:45;;;;;;;2.50;2.30;;;20.80;1.00;;;;;;5076794;28;20423;-75
2022/06/29 04:19:11;;;;;;;2.87;2.43;;;20.80;1.00;;;;;;5087013;28;20443;-74
2022/06/29 04:21:38;;;;;;;2.50;2.30;;;20.80;1.00;;;;;;5076466;28;20443;-74
2022/06/29 04:24:04;;;;;;;2.77;2.30;;;20.80;1.00;;;;;;5087235;28;20761;-74
2022/06/29 04:26:30;;;;;;;6.07;2.40;;;20.80;1.00;;;;;;5081442;28;20427;-74
2022/06/29 04:28:55;;;;;;;2.30;2.20;;;20.90;1.00;;;;;;5083270;28;20914;-74
2022/06/29 04:31:21;;;;;;;3.47;2.60;;;20.90;1.00;;;;;;5074332;28;20197;-74
2022/06/29 04:34:30;;;;;;;3.60;2.37;;;20.90;1.00;;;;;;5063587;28;20507;-74
2022/06/29 04:37:30;;;;;;;2.57;2.37;;;20.80;1.00;;;;;;5068186;28;20167;-79
2022/06/29 04:40:03;;;;;;;4.57;2.90;;;20.80;1.00;;;;;;5063890;28;20408;-78
2022/06/29 04:42:31;;;;;;;3.83;2.50;;;20.80;1.00;;;;;;5061510;28;20441;-77
2022/06/29 04:48:07;;;;;;;2.70;2.50;;;20.80;1.00;;;;;;5068044;28;20479;-77
2022/06/29 04:50:54;;;;;;;2.40;2.30;;;20.70;1.00;;;;;;5070593;28;20426;-77
2022/06/29 04:53:48;;;;;;;2.60;2.40;;;20.70;1.00;;;;;;5069167;28;20414;-77
2022/06/29 04:56:31;;;;;;;2.47;2.07;;;20.70;1.00;;;;;;5073919;28;20777;-77
2022/06/29 04:59:01;;;;;;;3.00;2.70;;;20.80;1.00;;;;;;5060672;28;20941;-77
2022/06/29 05:01:31;;;;;;;2.33;2.13;;;20.80;1.00;;;;;;5074220;28;20411;-77
2022/06/29 05:04:00;;;;;;;2.30;2.10;;;20.80;1.00;;;;;;5068307;28;20410;-77
2022/06/29 05:06:26;;;;;;;2.80;2.57;;;20.90;1.00;;;;;;5073437;28;20515;-77
2022/06/29 05:09:01;;;;;;;2.50;2.03;;;20.90;1.00;;;;;;5072372;28;21033;-78
2022/06/29 05:11:30;;;;;;;2.33;2.13;;;21.00;1.00;;;;;;5065558;28;20165;-77
2022/06/29 05:13:57;;;;;;;2.30;2.10;;;21.10;1.00;;;;;;5073645;28;20502;-77
2022/06/29 05:16:23;;;;;;;2.90;2.60;;;21.30;1.00;;;;;;5072653;28;20424;-77
2022/06/29 05:18:58;;;;;;;2.93;2.73;;;21.40;1.00;;;;;;5064329;28;20432;-78
2022/06/29 05:21:24;;;;;;;9.03;2.70;;;21.50;1.00;;;;;;5070351;28;20408;-78
2022/06/29 05:24:00;;;;;;;5.30;2.60;;;21.70;1.00;;;;;;5063422;28;20452;-77
2022/06/29 05:26:30;;;;;;;2.57;2.30;;;21.80;1.00;;;;;;5073426;28;20425;-77
2022/06/29 05:28:56;;;;;;;3.73;3.00;;;21.90;1.00;;;;;;5054219;28;21027;-77
2022/06/29 05:31:31;;;;;;;2.60;2.33;;;22.10;1.00;;;;;;5067347;28;20413;-77
2022/06/29 05:34:01;;;;;;;4.13;2.50;;;22.30;1.00;;;;;;5060223;28;20212;-77
2022/06/29 05:36:31;;;;;;;3.80;2.60;;;22.50;1.00;;;;;;5073466;28;20402;-77
2022/06/29 05:38:56;;;;;;;3.40;2.67;;;22.60;1.00;;;;;;5073166;28;20459;-78
2022/06/29 05:41:30;;;;;;;2.60;2.40;;;22.80;1.00;;;;;;5073468;28;20885;-78
2022/06/29 05:44:02;;;;;;;3.07;2.33;;;22.90;1.00;;;;;;5057455;28;20179;-78
2022/06/29 05:46:54;;;;;;;4.13;2.53;;;23.10;1.00;;;;;;5063721;28;20416;-92
2022/06/29 05:49:30;;;;;;;2.93;2.73;;;23.20;1.00;;;;;;5074380;28;20472;-90
2022/06/29 05:52:30;;;;;;;4.73;2.70;;;23.30;1.00;;;;;;5088006;28;20418;-92
2022/06/29 05:55:30;;;;;;;4.10;2.70;;;23.30;1.00;;;;;;5093768;28;20828;-78
2022/06/29 05:58:00;;;;;;;8.23;2.80;;;23.40;1.00;;;;;;5063777;28;20416;-78
2022/06/29 06:00:31;;;;;;;3.00;2.67;;;23.40;1.00;;;;;;5055348;28;20452;-80
2022/06/29 06:03:13;;;;;;;3.40;2.87;;;23.40;1.00;;;;;;5064901;28;20886;-77
2022/06/29 06:06:00;;;;;;;6.63;2.90;;;23.40;1.00;;;;;;5073249;28;20465;-79
2022/06/29 06:09:00;;;;;;;3.27;2.90;;;23.40;1.00;;;;;;5059752;28;20499;-78
2022/06/29 06:11:30;;;;;;;4.67;2.93;;;23.40;1.00;;;;;;5073376;28;20396;-78
2022/06/29 06:14:30;;;;;;;3.43;2.90;;;23.40;1.00;;;;;;5067782;28;20503;-78
2022/06/29 06:17:01;;;;;;;3.30;3.00;;;23.50;1.00;;;;;;5066258;28;20539;-78
2022/06/29 06:19:30;;;;;;;5.27;2.70;;;23.70;1.00;;;;;;5052894;28;20466;-78
2022/06/29 06:22:30;;;;;;;3.50;2.90;;;23.80;1.00;;;;;;5070649;28;20895;-78
2022/06/29 06:25:00;;;;;;;10.50;3.03;;;24.00;1.00;;;;;;5060073;28;20401;-87
2022/06/29 06:27:26;;;;;;;8.57;3.30;;;24.20;1.00;;;;;;5073713;28;20438;-87
2022/06/29 06:30:01;;;;;;;3.70;3.30;;;24.30;1.00;;;;;;5066784;28;20936;-87
2022/06/29 06:32:30;;;;;;;5.50;3.20;;;24.50;1.00;;;;;;5052771;28;20181;-87
2022/06/29 06:35:01;;;;;;;3.00;2.60;;;24.70;1.00;;;;;;5070651;28;20428;-87
2022/06/29 06:37:26;;;;;;;3.77;3.30;;;24.80;1.00;;;;;;5072058;28;20942;-88
2022/06/29 06:42:36;;;;;;;4.30;3.57;;;24.80;1.00;;;;;;5071044;28;20711;-87
2022/06/29 06:45:02;;;;;;;4.63;3.20;;;24.80;1.00;;;;;;5072770;28;20410;-87
2022/06/29 06:47:27;;;;;;;7.63;3.87;;;24.80;1.00;;;;;;5071350;28;20263;-88
2022/06/29 06:49:53;;;;;;;4.60;3.63;;;24.70;1.00;;;;;;5072734;28;20691;-88
2022/06/29 06:52:18;;;;;;;5.13;3.33;;;24.60;1.00;;;;;;5071811;28;20182;-87
2022/06/29 06:54:44;;;;;;;7.70;3.63;;;24.70;1.00;;;;;;5071947;28;20248;-87
2022/06/29 06:57:11;;;;;;;15.43;3.77;;;24.80;1.00;;;;;;5071288;28;20264;-79
2022/06/29 06:59:38;;;;;;;3.53;3.20;;;24.90;1.00;;;;;;5057686;28;20842;-78
2022/06/29 07:02:04;;;;;;;5.47;3.53;;;25.10;1.00;;;;;;5072052;28;20757;-79
2022/06/29 07:04:29;;;;;;;6.23;3.70;;;25.30;1.00;;;;;;5080841;28;20419;-79
2022/06/29 07:06:55;;;;;;;4.83;3.67;;;25.40;1.00;;;;;;5074244;28;20419;-79
2022/06/29 07:09:20;;;;;;;6.50;3.70;;;25.40;1.00;;;;;;5072275;28;20201;-78
2022/06/29 07:11:46;;;;;;;6.60;3.80;;;25.60;1.00;;;;;;5073074;28;20560;-87
2022/06/29 07:14:12;;;;;;;6.57;3.80;;;25.60;1.00;;;;;;5071316;28;20640;-88
2022/06/29 07:16:38;;;;;;;14.27;4.10;;;25.70;1.00;;;;;;5066461;28;20219;-86
2022/06/29 07:19:04;;;;;;;8.47;4.13;;;25.70;1.00;;;;;;5074079;28;20174;-87
2022/06/29 07:21:29;;;;;;;5.73;3.70;;;25.70;1.00;;;;;;5073028;28;20422;-87
2022/06/29 07:23:58;;;;;;;4.30;3.90;;;25.70;1.00;;;;;;5073625;28;20525;-87
2022/06/29 07:26:24;;;;;;;4.80;4.27;;;25.70;1.00;;;;;;5075292;28;20190;-86
2022/06/29 07:28:50;;;;;;;5.87;4.20;;;25.70;1.00;;;;;;5073828;28;20484;-86
2022/06/29 07:31:16;;;;;;;7.90;4.67;;;25.70;1.00;;;;;;5081447;28;20920;-87
2022/06/29 07:33:41;;;;;;;6.30;4.60;;;25.70;1.00;;;;;;5083764;28;20185;-87
2022/06/29 07:36:07;;;;;;;5.87;4.30;;;25.80;1.00;;;;;;5075530;28;20649;-87
2022/06/29 07:38:34;;;;;;;5.43;4.43;;;25.90;1.00;;;;;;5074963;28;20177;-87
2022/06/29 07:41:01;;;;;;;4.60;4.20;;;25.90;1.00;;;;;;5079609;28;20549;-80
2022/06/29 07:43:29;;;;;;;7.60;4.90;;;25.90;1.00;;;;;;5066910;28;20420;-78
2022/06/29 07:45:57;;;;;;;8.83;5.07;;;25.80;1.00;;;;;;5075230;28;20422;-79
2022/06/29 07:48:23;;;;;;;5.20;4.70;;;25.80;1.00;;;;;;5074916;28;20455;-79
2022/06/29 07:50:49;;;;;;;6.10;4.50;;;25.90;1.00;;;;;;5074972;28;20499;-79
2022/06/29 07:53:15;;;;;;;6.50;4.90;;;25.90;1.00;;;;;;5074554;28;20910;-79
2022/06/29 07:55:44;;;;;;;5.90;4.40;;;26.00;1.00;;;;;;5077404;28;20171;-79
2022/06/29 07:58:13;;;;;;;5.23;4.67;;;26.20;1.00;;;;;;5073859;28;20176;-79
2022/06/29 08:00:40;;;;;;;5.30;4.70;;;26.50;1.00;;;;;;5074752;28;20432;-79
2022/06/29 08:03:05;;;;;;;9.93;4.90;;;26.60;1.00;;;;;;5069268;28;20422;-79
2022/06/29 08:05:31;;;;;;;7.73;5.57;;;26.80;1.00;;;;;;5072706;28;20422;-79
2022/06/29 08:07:56;;;;;;;7.73;5.30;;;26.90;1.00;;;;;;5074283;28;20558;-78
2022/06/29 08:10:22;;;;;;;9.80;5.43;;;27.10;1.00;;;;;;5074643;28;20173;-78
2022/06/29 08:12:48;;;;;;;6.20;4.40;;;27.30;1.00;;;;;;5075749;28;20179;-87
2022/06/29 08:15:15;;;;;;;5.73;5.10;;;27.50;1.00;;;;;;5075138;28;20686;-87
2022/06/29 08:17:41;;;;;;;5.90;5.20;;;27.70;1.00;;;;;;5072433;28;20177;-83
2022/06/29 08:20:07;;;;;;;8.10;5.07;;;27.80;1.00;;;;;;5074394;28;20415;-77
2022/06/29 08:22:33;;;;;;;12.97;5.10;;;27.90;1.00;;;;;;5072700;28;20425;-77
2022/06/29 08:24:59;;;;;;;6.50;5.57;;;28.00;1.00;;;;;;5074340;28;20755;-77
2022/06/29 08:27:25;;;;;;;11.40;5.60;;;28.10;1.00;;;;;;5064400;28;20690;-74
2022/06/29 08:29:50;;;;;;;6.80;5.60;;;28.30;1.00;;;;;;5069371;28;20193;-75
2022/06/29 08:32:17;;;;;;;6.20;5.60;;;28.40;1.00;;;;;;5066589;28;20436;-75
2022/06/29 08:34:42;;;;;;;6.93;5.77;;;28.30;1.00;;;;;;5073711;28;20178;-75
2022/06/29 08:37:08;;;;;;;6.33;5.73;;;28.30;1.00;;;;;;5073769;28;20416;-75
2022/06/29 08:39:34;;;;;;;10.40;6.13;;;28.30;1.00;;;;;;5073486;28;20260;-74
2022/06/29 08:42:03;;;;;;;7.10;6.50;;;28.20;1.00;;;;;;5073803;28;20185;-74
2022/06/29 08:44:33;;;;;;;8.23;6.13;;;28.10;1.00;;;;;;5060400;28;20921;-74
2022/06/29 08:47:04;;;;;;;6.90;6.20;;;28.10;1.00;;;;;;5067754;28;20416;-75
2022/06/29 08:49:31;;;;;;;7.20;5.83;;;28.20;1.00;;;;;;5073545;28;20525;-75
2022/06/29 08:51:57;;;;;;;6.93;5.80;;;28.30;1.00;;;;;;5073632;28;20577;-75
2022/06/29 08:54:26;;;;;;;7.10;6.40;;;28.40;1.00;;;;;;5072890;28;20420;-75
2022/06/29 08:56:54;;;;;;;7.47;6.77;;;28.60;1.00;;;;;;5069477;28;20419;-74
2022/06/29 08:59:22;;;;;;;6.80;6.10;;;28.70;1.00;;;;;;5073367;28;20415;-75
2022/06/29 09:01:51;;;;;;;9.03;6.50;;;28.70;1.00;;;;;;5073641;28;20916;-77
2022/06/29 09:04:18;;;;;;;9.77;6.20;;;28.70;1.00;;;;;;5064103;28;20447;-75
2022/06/29 09:06:45;;;;;;;7.07;6.33;;;28.90;1.00;;;;;;5069843;28;20470;-75
2022/06/29 09:09:12;;;;;;;7.30;6.50;;;28.90;1.00;;;;;;5073130;28;20455;-75
2022/06/29 09:11:43;;;;;;;8.10;7.30;;;28.90;1.00;;;;;;5073683;28;20458;-75
2022/06/29 09:14:11;;;;;;;8.90;7.30;;;28.90;1.00;;;;;;5066207;28;20425;-75
2022/06/29 09:17:03;;;;;;;9.03;7.20;;;28.90;1.00;;;;;;5073205;28;20420;-75
2022/06/29 09:19:43;;;;;;;7.53;6.70;;;28.90;1.00;;;;;;5071341;28;20431;-75
2022/06/29 09:22:09;;;;;;;7.50;6.67;;;29.00;1.00;;;;;;5073229;28;21005;-75
2022/06/29 09:24:35;;;;;;;7.40;6.70;;;29.10;1.00;;;;;;5072475;28;20470;-75
2022/06/29 09:27:07;;;;;;;7.07;6.33;;;29.10;1.00;;;;;;5075014;28;20440;-77
2022/06/29 09:29:39;;;;;;;12.97;7.20;;;29.30;1.00;;;;;;5072848;28;20193;-77
2022/06/29 09:32:05;;;;;;;11.03;7.17;;;29.30;1.00;;;;;;5070443;28;20514;-77
2022/06/29 09:34:36;;;;;;;7.90;7.20;;;29.20;1.00;;;;;;5057451;28;20980;-77
2022/06/29 09:37:04;;;;;;;7.53;6.80;;;29.30;1.00;;;;;;5050283;28;20773;-78
2022/06/29 09:39:36;;;;;;;8.80;7.23;;;29.30;1.00;;;;;;5052932;28;20447;-77
2022/06/29 09:42:05;;;;;;;7.17;6.50;;;29.50;1.00;;;;;;5072236;28;20420;-77
2022/06/29 09:44:31;;;;;;;9.63;6.57;;;29.40;1.00;;;;;;5072436;28;21018;-77
2022/06/29 09:46:57;;;;;;;7.30;6.70;;;29.60;1.00;;;;;;5077151;28;20474;-77
2022/06/29 09:49:29;;;;;;;9.40;7.37;;;29.70;1.00;;;;;;5073079;28;20839;-77
2022/06/29 09:52:02;;;;;;;8.20;7.40;;;29.90;1.00;;;;;;5074224;28;20463;-77
2022/06/29 09:54:37;;;;;;;7.60;6.90;;;30.00;1.00;;;;;;5071646;28;20405;-77
2022/06/29 09:57:04;;;;;;;33.37;7.40;;;30.20;1.00;;;;;;5072734;28;20414;-77
2022/06/29 10:02:34;;;;;;;7.60;6.50;;;30.50;1.00;;;;;;5070618;28;20463;-77
2022/06/29 10:05:04;;;;;;;7.70;6.90;;;30.90;1.00;;;;;;5072789;28;20428;-78
2022/06/29 10:07:30;;;;;;;7.33;6.43;;;31.30;1.00;;;;;;5072719;28;20421;-77
2022/06/29 10:10:00;;;;;;;8.30;7.10;;;31.60;1.00;;;;;;5073498;28;20976;-78
2022/06/29 10:16:00;;;;;;;8.07;7.27;;;31.80;1.00;;;;;;5029145;28;20988;-75
2022/06/29 10:18:34;;;;;;;8.47;7.10;;;31.90;1.00;;;;;;5024166;28;20429;-75
2022/06/29 10:21:00;;;;;;;7.27;6.57;;;31.80;1.00;;;;;;5028923;28;20422;-75
2022/06/29 10:23:49;;;;;;;7.20;6.23;;;32.00;1.00;;;;;;5030171;28;20466;-75
2022/06/29 10:26:36;;;;;;;7.83;7.00;;;32.30;1.00;;;;;;5033418;28;20514;-75
2022/06/29 10:29:07;;;;;;;12.20;6.80;;;32.30;1.00;;;;;;5030421;28;20462;-77
2022/06/29 10:32:14;;;;;;;7.90;7.17;;;32.30;1.00;;;;;;5017283;28;20430;-77
2022/06/29 10:35:06;;;;;;;7.83;6.50;;;32.20;1.00;;;;;;4990466;28;20451;-77
2022/06/29 10:37:28;;;;;;;8.00;7.17;;;32.30;1.00;;;;;;4986390;28;20417;-77
2022/06/29 10:40:04;;;;;;;9.70;7.40;;;32.50;1.00;;;;;;4978578;28;20500;-77
2022/06/29 10:45:24;;;;;;;11.07;8.10;;;32.30;1.00;;;;;;4984428;28;20993;-77
2022/06/29 10:47:52;;;;;;;8.50;7.70;;;32.20;1.00;;;;;;4979128;28;20471;-77
2022/06/29 10:50:20;;;;;;;9.07;7.67;;;32.20;1.00;;;;;;4985593;28;20454;-77
2022/06/29 10:52:55;;;;;;;11.37;7.40;;;32.10;1.00;;;;;;4997642;28;20424;-78
2022/06/29 10:55:23;;;;;;;7.60;6.90;;;31.90;1.00;;;;;;5010301;28;20443;-77
2022/06/29 10:57:49;;;;;;;8.27;7.10;;;31.80;1.00;;;;;;5014236;28;20481;-75
2022/06/29 11:00:17;;;;;;;10.53;6.70;;;32.00;1.00;;;;;;5027135;28;20432;-75
2022/06/29 11:02:44;;;;;;;9.57;7.83;;;32.10;1.00;;;;;;5013729;28;20224;-75
2022/06/29 11:05:10;;;;;;;7.10;6.40;;;32.30;1.00;;;;;;5013822;28;20572;-75
2022/06/29 11:13:29;;;;;;;7.83;7.00;;;32.00;1.00;;;;;;5022754;28;20791;-77
2022/06/29 11:15:56;;;;;;;8.00;7.20;;;31.90;1.00;;;;;;5033613;28;20499;-77
2022/06/29 11:18:29;;;;;;;7.43;6.83;;;31.80;1.00;;;;;;5033527;28;20411;-77
2022/06/29 11:21:02;;;;;;;7.80;7.10;;;31.80;1.00;;;;;;5034205;28;20976;-77
2022/06/29 11:23:32;;;;;;;6.83;6.23;;;31.80;1.00;;;;;;5038724;28;20510;-78
2022/06/29 11:25:58;;;;;;;7.40;6.43;;;31.80;1.00;;;;;;5035878;28;20462;-79
2022/06/29 11:28:29;;;;;;;9.00;6.93;;;31.80;1.00;;;;;;5038140;28;20597;-77
2022/06/29 11:31:01;;;;;;;6.47;5.97;;;32.10;1.00;;;;;;5035121;28;20423;-78
2022/06/29 11:33:28;;;;;;;9.57;6.73;;;32.30;1.00;;;;;;5044185;28;20422;-77
2022/06/29 11:35:55;;;;;;;8.33;7.53;;;32.80;1.00;;;;;;5019091;28;20435;-77
2022/06/29 11:38:26;;;;;;;7.20;6.60;;;33.10;1.00;;;;;;5029055;28;20420;-77
2022/06/29 11:40:54;;;;;;;11.43;6.80;;;33.30;1.00;;;;;;5032375;28;20500;-78
2022/06/29 11:43:20;;;;;;;8.67;6.57;;;33.40;1.00;;;;;;5036994;28;20522;-79
2022/06/29 11:45:54;;;;;;;7.47;6.47;;;33.10;1.00;;;;;;5028902;28;20428;-79
2022/06/29 11:48:26;;;;;;;8.03;7.23;;;32.90;1.00;;;;;;5069819;28;20453;-78
2022/06/29 11:51:00;;;;;;;7.03;6.47;;;32.80;1.00;;;;;;5071617;28;20920;-78
2022/06/29 11:53:54;;;;;;;8.50;7.00;;;32.60;1.00;;;;;;5076802;28;20413;-78
2022/06/29 11:56:23;;;;;;;7.70;6.50;;;32.40;1.00;;;;;;5074125;28;20413;-78
2022/06/29 11:58:55;;;;;;;7.43;6.73;;;32.40;1.00;;;;;;5075323;28;20421;-76
2022/06/29 12:01:26;;;;;;;7.83;7.13;;;32.10;1.00;;;;;;5074856;28;20474;-82
2022/06/29 12:03:59;;;;;;;7.97;6.93;;;31.80;1.00;;;;;;5067006;28;20442;-81
2022/06/29 12:06:27;;;;;;;7.90;7.00;;;31.30;1.00;;;;;;5067757;28;20478;-81
2022/06/29 12:08:54;;;;;;;10.17;7.87;;;30.90;1.00;;;;;;5072804;28;20488;-81
2022/06/29 12:11:48;;;;;;;12.07;7.40;;;30.40;1.00;;;;;;5061436;28;20777;-80
2022/06/29 12:14:43;;;;;;;7.20;6.50;;;30.50;1.00;;;;;;5064915;28;20410;-80
2022/06/29 12:17:10;;;;;;;8.63;7.20;;;30.50;1.00;;;;;;5070060;28;20736;-80
2022/06/29 12:19:40;;;;;;;7.93;6.97;;;30.40;1.00;;;;;;5061475;28;20916;-80
2022/06/29 12:22:24;;;;;;;9.40;7.73;;;30.50;1.00;;;;;;5064922;28;20414;-80
2022/06/29 12:24:50;;;;;;;7.07;6.47;;;31.00;1.00;;;;;;5068728;28;20501;-81
2022/06/29 12:27:16;;;;;;;10.30;6.70;;;31.40;1.00;;;;;;5066417;28;20524;-81
2022/06/29 12:29:41;;;;;;;10.37;7.40;;;31.70;1.00;;;;;;5074545;28;20202;-89
2022/06/29 12:32:13;;;;;;;8.03;7.07;;;31.90;1.00;;;;;;5074706;28;20175;-89
2022/06/29 12:35:24;;;;;;;8.10;7.30;;;32.00;1.00;;;;;;5074545;28;20168;-90
2022/06/29 12:42:00;;;;;;;7.57;6.87;;;32.70;1.00;;;;;;5074539;28;20459;-87
2022/06/29 12:48:24;;;;;;;10.70;7.30;;;33.50;1.00;;;;;;5071085;28;20389;-87
2022/06/29 12:58:06;;;;;;;8.07;7.17;;;32.20;1.00;;;;;;5063207;28;20444;-88
2022/06/29 13:00:49;;;;;;;8.57;7.37;;;32.00;1.00;;;;;;5075260;28;20928;-81
2022/06/29 13:06:36;;;;;;;8.10;6.77;;;31.50;1.00;;;;;;5057058;28;20366;-81
2022/06/29 13:09:54;;;;;;;6.83;6.23;;;31.40;1.00;;;;;;5064774;28;20450;-81
2022/06/29 13:15:41;;;;;;;7.40;6.80;;;32.10;1.00;;;;;;5064651;28;20418;-89
2022/06/29 13:18:19;;;;;;;8.27;6.50;;;32.60;1.00;;;;;;5066368;28;20413;-89
2022/06/29 13:20:46;;;;;;;7.30;6.60;;;32.90;1.00;;;;;;5073118;28;20578;-89
2022/06/29 13:23:14;;;;;;;9.90;6.60;;;33.00;1.00;;;;;;5077312;28;20423;-88
2022/06/29 13:25:39;;;;;;;6.97;6.37;;;32.90;1.00;;;;;;5072925;28;20426;-89
2022/06/29 13:28:05;;;;;;;6.87;6.23;;;32.90;1.00;;;;;;5072522;28;20488;-89
2022/06/29 13:30:31;;;;;;;7.70;6.37;;;32.90;1.00;;;;;;5072431;28;20203;-89
2022/06/29 13:32:56;;;;;;;7.23;6.63;;;32.90;1.00;;;;;;5072130;28;20523;-89
2022/06/29 13:35:22;;;;;;;6.80;6.10;;;32.90;1.00;;;;;;5076589;28;20175;-90
2022/06/29 13:37:48;;;;;;;7.17;6.37;;;32.90;1.00;;;;;;5073091;28;20708;-89
2022/06/29 13:40:13;;;;;;;7.40;6.63;;;33.00;1.00;;;;;;5072712;28;20179;-89
2022/06/29 13:42:39;;;;;;;7.87;6.77;;;32.80;1.00;;;;;;5072378;28;20202;-89
2022/06/29 13:45:06;;;;;;;10.90;6.50;;;32.80;1.00;;;;;;5053866;28;20180;-82
2022/06/29 13:47:32;;;;;;;7.23;6.57;;;32.70;1.00;;;;;;5071742;28;20416;-81
2022/06/29 13:49:57;;;;;;;7.10;6.50;;;32.60;1.00;;;;;;5079285;28;20420;-81
2022/06/29 13:52:23;;;;;;;7.83;7.10;;;32.50;1.00;;;;;;5069506;28;20258;-82
2022/06/29 13:54:48;;;;;;;11.43;7.50;;;32.40;1.00;;;;;;5058629;28;20266;-81
2022/06/29 13:57:15;;;;;;;7.33;6.60;;;32.40;1.00;;;;;;5066621;28;20207;-81
2022/06/29 13:59:40;;;;;;;8.67;6.17;;;32.60;1.00;;;;;;5063449;28;20175;-81
2022/06/29 14:02:06;;;;;;;9.60;6.10;;;32.90;1.00;;;;;;5072396;28;20935;-81
2022/06/29 14:04:32;;;;;;;8.77;6.33;;;33.20;1.00;;;;;;5072754;28;20179;-81
2022/06/29 14:06:58;;;;;;;6.90;6.30;;;33.30;1.00;;;;;;5071131;28;20182;-82
2022/06/29 14:09:24;;;;;;;10.27;6.93;;;33.00;1.00;;;;;;5072173;28;20222;-81
2022/06/29 14:11:49;;;;;;;7.73;6.37;;;32.90;1.00;;;;;;5072415;28;20943;-82
2022/06/29 14:14:15;;;;;;;7.33;6.03;;;32.80;1.00;;;;;;5071302;28;20175;-88
2022/06/29 14:16:40;;;;;;;6.90;6.30;;;32.60;1.00;;;;;;5074392;28;20194;-88
2022/06/29 14:19:06;;;;;;;8.60;6.20;;;32.40;1.00;;;;;;5063778;28;20221;-88